createdAt,value
2023-02-23T00:02:26.573Z,45.78
2023-02-23T00:05:12.672Z,50.58
2023-02-23T00:08:25.685Z,49.42
2023-02-23T00:11:13.039Z,51.45
2023-02-23T00:14:01.349Z,43.83
2023-02-23T00:17:13.135Z,46.25
2023-02-23T00:20:27.385Z,43.38
2023-02-23T00:23:15.097Z,49.60
2023-02-23T00:26:04.524Z,49.88
2023-02-23T00:28:53.736Z,49.72
2023-02-23T00:31:40.408Z,54.25
2023-02-23T00:34:26.509Z,44.20
2023-02-23T00:37:12.587Z,47.17
2023-02-23T00:39:58.629Z,50.08
2023-02-23T00:42:49.520Z,48.47
2023-02-23T00:45:36.799Z,57.65
2023-02-23T00:48:22.590Z,47.28
2023-02-23T00:51:08.714Z,52.08
2023-02-23T00:53:55.391Z,54.28
2023-02-23T00:56:41.895Z,48.00
2023-02-23T00:59:29.818Z,50.70
2023-02-23T01:02:16.023Z,52.42
2023-02-23T01:05:26.697Z,49.20
2023-02-23T01:08:13.015Z,53.75
2023-02-23T01:10:59.035Z,50.20
2023-02-23T01:17:20.866Z,53.10
2023-02-23T01:20:18.394Z,52.05
2023-02-23T01:23:05.341Z,54.30
2023-02-23T01:25:51.258Z,56.00
2023-02-23T01:56:11.592Z,39.05
2023-02-23T01:59:22.729Z,43.33
2023-02-23T02:02:09.011Z,44.30
2023-02-23T02:04:56.605Z,43.75
2023-02-23T02:07:50.426Z,43.77
2023-02-23T02:10:44.710Z,45.45
2023-02-23T02:13:32.509Z,46.08
2023-02-23T02:16:45.485Z,43.65
2023-02-23T02:19:40.600Z,37.58
2023-02-23T02:22:36.030Z,42.88
2023-02-23T02:26:13.515Z,43.42
2023-02-23T02:38:43.306Z,39.60
2023-02-23T02:41:53.673Z,42.00
2023-02-23T02:44:50.985Z,41.42
2023-02-23T02:48:11.908Z,44.72
2023-02-23T02:51:19.618Z,37.40
2023-02-23T02:54:32.251Z,37.70
2023-02-23T02:57:20.512Z,36.50
2023-02-23T03:00:26.133Z,40.65
2023-02-23T03:03:51.723Z,42.05
2023-02-23T03:07:17.851Z,39.65
2023-02-23T03:10:44.497Z,39.22
2023-02-23T03:14:10.976Z,38.30
2023-02-23T03:17:47.835Z,37.65
2023-02-23T03:25:53.748Z,41.90
2023-02-23T03:29:27.893Z,44.38
2023-02-23T03:32:58.506Z,38.45
2023-02-23T03:36:38.121Z,37.65
2023-02-23T03:39:49.405Z,38.08
2023-02-23T03:42:57.397Z,35.03
2023-02-23T03:46:05.510Z,34.72
2023-02-23T03:49:12.216Z,41.80
2023-02-23T03:52:25.861Z,36.70
2023-02-23T03:55:36.068Z,39.75
2023-02-23T03:58:52.487Z,39.42
2023-02-23T04:02:17.025Z,42.75
2023-02-23T04:05:29.476Z,37.40
2023-02-23T04:08:38.414Z,39.70
2023-02-23T04:11:52.645Z,45.35
2023-02-23T04:14:54.885Z,48.22
2023-02-23T04:17:42.181Z,32.90
2023-02-23T04:20:28.399Z,39.05
2023-02-23T04:23:14.563Z,48.08
2023-02-23T04:26:00.795Z,41.88
2023-02-23T04:28:46.752Z,42.10
2023-02-23T04:31:32.659Z,43.22
2023-02-23T04:34:21.716Z,51.00
2023-02-23T04:37:07.606Z,42.78
2023-02-23T04:39:53.422Z,44.67
2023-02-23T04:42:41.331Z,47.10
2023-02-23T04:45:27.394Z,49.42
2023-02-23T04:48:13.424Z,46.25
2023-02-23T04:50:59.401Z,49.67
2023-02-23T04:53:45.417Z,50.92
2023-02-23T04:56:32.152Z,48.42
2023-02-23T04:59:18.598Z,46.17
2023-02-23T05:02:04.510Z,49.58
2023-02-23T05:04:51.095Z,57.92
2023-02-23T05:07:37.499Z,48.25
2023-02-23T05:10:23.560Z,48.65
2023-02-23T05:13:09.488Z,45.88
2023-02-23T05:15:58.957Z,48.72
2023-02-23T05:18:44.724Z,50.33
2023-02-23T05:21:30.794Z,50.92
2023-02-23T05:24:18.323Z,40.95
2023-02-23T05:27:04.252Z,55.38
2023-02-23T05:29:50.264Z,48.92
2023-02-23T05:32:36.898Z,53.28
2023-02-23T05:35:23.373Z,48.90
2023-02-23T05:38:09.476Z,48.63
2023-02-23T05:40:55.546Z,53.17
2023-02-23T05:43:44.780Z,57.45
2023-02-23T05:46:30.751Z,48.83
2023-02-23T05:49:16.734Z,44.67
2023-02-23T05:52:02.990Z,45.55
2023-02-23T05:54:48.932Z,52.00
2023-02-23T05:57:34.768Z,48.80
2023-02-23T06:00:21.291Z,48.22
2023-02-23T06:03:07.504Z,47.92
2023-02-23T06:05:54.915Z,56.55
2023-02-23T06:08:41.325Z,49.95
2023-02-23T06:11:28.076Z,48.95
2023-02-23T06:14:14.648Z,49.03
2023-02-23T06:17:01.117Z,46.22
2023-02-23T06:19:46.938Z,53.08
2023-02-23T06:22:33.136Z,40.38
2023-02-23T06:25:18.829Z,46.00
2023-02-23T06:28:05.725Z,43.78
2023-02-23T06:30:55.926Z,43.53
2023-02-23T06:33:41.951Z,43.85
2023-02-23T06:36:28.332Z,53.00
2023-02-23T06:39:14.001Z,49.90
2023-02-23T06:42:00.588Z,45.03
2023-02-23T06:44:46.715Z,48.75
2023-02-23T06:47:33.715Z,51.65
2023-02-23T06:50:20.172Z,44.78
2023-02-23T06:53:06.338Z,51.85
2023-02-23T06:55:52.048Z,46.15
2023-02-23T06:58:38.658Z,48.50
2023-02-23T07:01:24.630Z,45.60
2023-02-23T07:04:16.658Z,42.85
2023-02-23T07:07:03.757Z,39.05
2023-02-23T07:09:49.589Z,44.78
2023-02-23T07:12:35.544Z,41.72
2023-02-23T07:15:22.151Z,41.58
2023-02-23T07:18:08.480Z,44.38
2023-02-23T07:20:54.373Z,42.28
2023-02-23T07:23:40.297Z,45.10
2023-02-23T07:26:26.863Z,38.53
2023-02-23T07:29:13.453Z,42.53
2023-02-23T07:31:59.413Z,41.22
2023-02-23T07:34:46.091Z,39.15
2023-02-23T07:37:32.004Z,38.88
2023-02-23T07:40:19.496Z,36.63
2023-02-23T07:43:05.424Z,43.95
2023-02-23T07:45:51.910Z,37.72
2023-02-23T07:48:38.694Z,36.45
2023-02-23T07:51:24.686Z,41.30
2023-02-23T07:54:11.147Z,43.45
2023-02-23T07:56:57.207Z,35.78
2023-02-23T07:59:43.672Z,41.22
2023-02-23T08:02:29.903Z,37.22
2023-02-23T08:05:16.630Z,37.90
2023-02-23T08:08:02.611Z,39.30
2023-02-23T08:10:49.998Z,44.85
2023-02-23T08:13:37.888Z,38.72
2023-02-23T08:16:23.945Z,36.45
2023-02-23T08:19:10.052Z,34.25
2023-02-23T08:21:57.028Z,37.42
2023-02-23T08:24:43.239Z,38.90
2023-02-23T08:27:29.337Z,43.75
2023-02-23T08:30:15.793Z,37.92
2023-02-23T08:33:01.704Z,39.33
2023-02-23T08:35:47.827Z,41.40
2023-02-23T08:38:36.601Z,39.80
2023-02-23T08:41:22.506Z,39.78
2023-02-23T08:44:08.908Z,39.63
2023-02-23T08:46:55.920Z,37.45
2023-02-23T08:49:41.514Z,35.70
2023-02-23T08:52:27.416Z,35.67
2023-02-23T08:55:16.630Z,40.17
2023-02-23T08:58:02.674Z,38.55
2023-02-23T09:00:48.743Z,36.55
2023-02-23T09:03:38.259Z,41.20
2023-02-23T09:06:26.092Z,34.95
2023-02-23T09:09:11.800Z,35.78
2023-02-23T09:11:59.102Z,35.60
2023-02-23T09:14:45.920Z,39.08
2023-02-23T09:17:31.655Z,34.30
2023-02-23T09:20:18.276Z,39.75
2023-02-23T09:23:04.143Z,33.20
2023-02-23T09:25:50.674Z,33.83
2023-02-23T09:28:38.819Z,32.53
2023-02-23T09:31:24.976Z,32.95
2023-02-23T09:34:12.746Z,33.00
2023-02-23T09:36:58.586Z,32.20
2023-02-23T09:39:45.783Z,32.78
2023-02-23T09:43:13.652Z,36.75
2023-02-23T09:46:29.917Z,38.92
2023-02-23T09:49:19.453Z,36.03
2023-02-23T09:52:11.807Z,33.83
2023-02-23T09:54:58.900Z,33.63
2023-02-23T09:57:47.791Z,36.47
2023-02-23T10:00:42.070Z,36.40
2023-02-23T10:03:32.190Z,32.72
2023-02-23T10:06:19.385Z,31.67
2023-02-23T10:09:19.564Z,34.65
2023-02-23T10:12:16.595Z,36.50
2023-02-23T10:15:20.745Z,31.90
2023-02-23T10:18:33.235Z,34.05
2023-02-23T10:21:40.546Z,35.70
2023-02-23T10:24:49.152Z,34.95
2023-02-23T10:27:47.944Z,35.38
2023-02-23T10:30:34.801Z,31.70
2023-02-23T10:33:26.881Z,30.73
2023-02-23T10:36:19.740Z,29.65
2023-02-23T10:39:09.803Z,33.60
2023-02-23T10:41:58.269Z,31.63
2023-02-23T10:44:46.675Z,31.30
2023-02-23T10:47:36.067Z,33.53
2023-02-23T10:50:22.721Z,31.65
2023-02-23T10:53:11.902Z,31.55
2023-02-23T10:56:11.609Z,34.08
2023-02-23T10:58:59.058Z,30.63
2023-02-23T11:02:00.926Z,26.27
2023-02-23T11:04:57.708Z,27.90
2023-02-23T11:07:44.830Z,30.55
2023-02-23T11:10:32.276Z,26.33
2023-02-23T11:13:27.398Z,29.33
2023-02-23T11:16:31.058Z,27.60
2023-02-23T11:19:29.928Z,26.60
2023-02-23T11:22:23.801Z,25.50
2023-02-23T11:25:33.461Z,30.33
2023-02-23T11:28:25.695Z,27.08
2023-02-23T11:31:30.953Z,28.35
2023-02-23T11:34:29.345Z,26.58
2023-02-23T11:37:41.054Z,26.65
2023-02-23T11:40:32.072Z,26.30
2023-02-23T11:43:18.905Z,29.58
2023-02-23T11:46:05.589Z,27.80
2023-02-23T11:48:57.264Z,26.73
2023-02-23T11:51:49.188Z,32.47
2023-02-23T11:54:35.895Z,27.77
2023-02-23T11:57:29.057Z,25.15
2023-02-23T12:00:25.592Z,25.05
2023-02-23T12:03:18.612Z,24.40
2023-02-23T12:06:06.059Z,28.15
2023-02-23T12:08:56.371Z,28.67
2023-02-23T12:11:49.265Z,30.23
2023-02-23T12:14:50.112Z,26.30
2023-02-23T12:17:49.434Z,26.77
2023-02-23T12:20:41.231Z,30.00
2023-02-23T12:23:33.670Z,29.52
2023-02-23T12:26:22.801Z,26.55
2023-02-23T12:29:30.844Z,30.42
2023-02-23T12:32:26.705Z,30.05
2023-02-23T12:35:27.212Z,26.35
2023-02-23T12:38:36.382Z,28.27
2023-02-23T12:41:45.627Z,24.08
2023-02-23T12:45:04.052Z,27.35
2023-02-23T12:48:00.259Z,30.45
2023-02-23T12:50:56.661Z,27.80
2023-02-23T12:53:44.307Z,27.13
2023-02-23T12:56:56.009Z,30.17
2023-02-23T12:59:49.774Z,29.13
2023-02-23T13:03:10.649Z,29.45
2023-02-23T13:06:20.492Z,30.98
2023-02-23T13:09:49.218Z,28.70
2023-02-23T13:12:48.218Z,29.75
2023-02-23T13:15:56.125Z,26.17
2023-02-23T13:19:27.132Z,27.88
2023-02-23T13:22:54.346Z,28.83
2023-02-23T13:26:03.557Z,27.10
2023-02-23T13:29:01.788Z,27.10
2023-02-23T13:31:56.817Z,28.30
2023-02-23T13:34:48.322Z,27.90
2023-02-23T13:37:43.448Z,31.67
2023-02-23T13:40:41.125Z,28.13
2023-02-23T13:43:35.032Z,31.35
2023-02-23T13:46:54.629Z,25.67
2023-02-23T13:49:56.828Z,28.58
2023-02-23T13:52:45.025Z,33.10
2023-02-23T13:55:48.069Z,25.35
2023-02-23T13:58:36.194Z,28.33
2023-02-23T14:01:23.595Z,27.35
2023-02-23T14:04:17.181Z,28.85
2023-02-23T14:07:05.898Z,27.42
2023-02-23T14:09:58.447Z,23.75
2023-02-23T14:13:09.002Z,27.00
2023-02-23T14:16:10.781Z,26.50
2023-02-23T14:19:08.679Z,25.65
2023-02-23T14:22:13.922Z,25.75
2023-02-23T14:25:19.140Z,26.48
2023-02-23T14:28:22.842Z,28.45
2023-02-23T14:31:12.253Z,24.10
2023-02-23T14:34:03.432Z,25.80
2023-02-23T14:36:53.328Z,29.42
2023-02-23T14:39:40.828Z,24.35
2023-02-23T14:42:32.903Z,28.08
2023-02-23T14:45:38.427Z,25.90
2023-02-23T14:48:25.678Z,25.17
2023-02-23T14:51:56.444Z,25.73
2023-02-23T14:54:43.132Z,28.00
2023-02-23T14:57:31.192Z,26.48
2023-02-23T15:00:21.476Z,24.75
2023-02-23T15:03:12.379Z,25.52
2023-02-23T15:06:03.051Z,26.60
2023-02-23T15:08:49.548Z,25.38
2023-02-23T15:11:37.669Z,24.80
2023-02-23T15:14:48.847Z,25.70
2023-02-23T15:17:50.499Z,27.65
2023-02-23T15:20:36.846Z,25.98
2023-02-23T15:23:22.961Z,25.15
2023-02-23T15:26:38.127Z,27.27
2023-02-23T15:29:36.401Z,24.48
2023-02-23T15:32:25.809Z,25.77
2023-02-23T15:35:13.453Z,22.80
2023-02-23T15:38:11.515Z,27.35
2023-02-23T15:41:07.766Z,24.77
2023-02-23T15:43:53.885Z,28.52
2023-02-23T15:46:42.632Z,27.95
2023-02-23T15:49:32.518Z,27.08
2023-02-23T15:52:23.220Z,30.63
2023-02-23T15:55:13.299Z,25.92
2023-02-23T15:58:01.754Z,28.15
2023-02-23T16:00:56.063Z,27.27
2023-02-23T16:03:55.010Z,25.88
2023-02-23T16:06:52.559Z,30.75
2023-02-23T16:09:39.287Z,27.77
2023-02-23T16:12:38.310Z,24.58
2023-02-23T16:15:35.417Z,26.73
2023-02-23T16:18:33.160Z,25.85
2023-02-23T16:21:23.974Z,27.10
2023-02-23T16:24:15.044Z,22.63
2023-02-23T16:27:02.365Z,28.02
2023-02-23T16:30:00.400Z,25.88
2023-02-23T16:32:47.960Z,24.83
2023-02-23T16:35:52.073Z,27.08
2023-02-23T16:38:39.074Z,23.13
2023-02-23T16:41:29.198Z,23.92
2023-02-23T16:44:43.691Z,26.92
2023-02-23T16:47:36.695Z,31.77
2023-02-23T16:50:24.464Z,26.43
2023-02-23T16:53:12.166Z,26.70
2023-02-23T16:56:01.217Z,26.23
2023-02-23T16:58:54.515Z,27.25
2023-02-23T17:01:41.076Z,26.90
2023-02-23T17:04:27.769Z,27.67
2023-02-23T17:07:14.785Z,29.17
2023-02-23T17:10:00.649Z,27.23
2023-02-23T17:12:47.931Z,25.73
2023-02-23T17:15:41.731Z,28.33
2023-02-23T17:18:30.776Z,26.80
2023-02-23T17:21:24.203Z,27.52
2023-02-23T17:26:57.692Z,25.50
2023-02-23T17:29:43.655Z,26.90
2023-02-23T17:32:30.062Z,25.08
2023-02-23T17:35:17.119Z,26.10
2023-02-23T17:38:05.148Z,28.35
2023-02-23T17:40:51.155Z,27.10
2023-02-23T17:43:44.230Z,26.88
2023-02-23T17:46:33.502Z,23.38
2023-02-23T17:49:22.361Z,28.20
2023-02-23T17:52:09.259Z,25.42
2023-02-23T17:54:58.376Z,30.88
2023-02-23T17:57:46.678Z,24.23
2023-02-23T18:00:37.998Z,23.90
2023-02-23T18:03:26.478Z,24.10
2023-02-23T18:06:14.789Z,23.77
2023-02-23T18:09:01.288Z,25.63
2023-02-23T18:11:48.969Z,23.40
2023-02-23T18:14:35.423Z,23.63
2023-02-23T18:17:21.366Z,26.55
2023-02-23T18:20:08.676Z,27.45
2023-02-23T18:22:54.531Z,24.20
2023-02-23T18:25:40.773Z,25.77
2023-02-23T18:28:26.518Z,22.25
2023-02-23T18:31:16.335Z,22.95
2023-02-23T18:34:02.153Z,28.50
2023-02-23T18:37:14.250Z,23.85
2023-02-23T18:40:00.769Z,20.05
2023-02-23T18:42:54.398Z,22.50
2023-02-23T18:45:41.224Z,24.17
2023-02-23T18:48:35.567Z,21.20
2023-02-23T18:51:23.820Z,23.33
2023-02-23T18:54:17.656Z,21.38
2023-02-23T18:57:05.183Z,25.58
2023-02-23T19:00:02.926Z,22.15
2023-02-23T19:02:49.309Z,22.88
2023-02-23T19:05:36.321Z,23.38
2023-02-23T19:08:23.728Z,22.52
2023-02-23T19:11:10.398Z,24.23
2023-02-23T19:14:00.290Z,23.15
2023-02-23T19:16:47.511Z,23.30
2023-02-23T19:20:27.068Z,26.08
2023-02-23T19:23:14.308Z,23.40
2023-02-23T19:26:02.607Z,21.60
2023-02-23T19:28:49.003Z,21.70
2023-02-23T19:31:35.803Z,21.33
2023-02-23T19:34:21.748Z,22.33
2023-02-23T19:37:09.950Z,23.95
2023-02-23T19:39:56.214Z,24.35
2023-02-23T19:42:46.540Z,21.83
2023-02-23T19:45:32.661Z,23.42
2023-02-23T19:48:19.098Z,23.77
2023-02-23T19:51:06.202Z,24.45
2023-02-23T19:53:57.573Z,26.23
2023-02-23T19:56:44.192Z,24.52
2023-02-23T19:59:30.850Z,20.70
2023-02-23T20:02:17.305Z,21.88
2023-02-23T20:05:03.812Z,24.25
2023-02-23T20:07:51.539Z,23.17
2023-02-23T20:10:42.744Z,22.77
2023-02-23T20:13:28.627Z,24.27
2023-02-23T20:16:15.480Z,25.20
2023-02-23T20:19:03.781Z,26.65
2023-02-23T20:21:50.081Z,25.55
2023-02-23T20:24:36.702Z,31.08
2023-02-23T20:27:22.810Z,26.23
2023-02-23T20:30:11.878Z,25.02
2023-02-23T20:32:58.366Z,29.77
2023-02-23T20:35:44.625Z,27.80
2023-02-23T20:38:31.610Z,26.75
2023-02-23T20:41:17.792Z,29.52
2023-02-23T20:44:04.063Z,28.73
2023-02-23T20:46:50.227Z,29.88
2023-02-23T20:49:37.362Z,30.42
2023-02-23T20:52:23.706Z,27.75
2023-02-23T20:55:10.693Z,30.20
2023-02-23T20:57:57.573Z,31.38
2023-02-23T21:00:44.230Z,33.97
2023-02-23T21:03:30.309Z,31.95
2023-02-23T21:06:16.501Z,31.63
2023-02-23T21:09:07.785Z,31.13
2023-02-23T21:11:55.187Z,32.10
2023-02-23T21:14:41.945Z,34.70
2023-02-23T21:17:28.814Z,31.15
2023-02-23T21:20:15.236Z,30.20
2023-02-23T21:23:02.555Z,34.58
2023-02-23T21:25:51.245Z,36.13
2023-02-23T21:28:39.948Z,29.73
2023-02-23T21:31:26.904Z,30.75
2023-02-23T21:34:16.117Z,31.45
2023-02-23T21:37:02.196Z,33.10
2023-02-23T21:39:49.931Z,30.00
2023-02-23T21:42:42.389Z,32.00
2023-02-23T21:45:28.266Z,31.45
2023-02-23T21:48:15.090Z,34.55
2023-02-23T21:51:06.108Z,34.40
2023-02-23T21:53:52.237Z,39.83
2023-02-23T21:56:38.177Z,32.88
2023-02-23T21:59:24.581Z,30.77
2023-02-23T22:02:13.300Z,31.55
2023-02-23T22:05:00.175Z,33.63
2023-02-23T22:07:51.506Z,31.25
2023-02-23T22:10:37.737Z,33.85
2023-02-23T22:13:23.969Z,31.25
2023-02-23T22:16:10.242Z,35.95
2023-02-23T22:18:56.305Z,34.40
2023-02-23T22:21:43.069Z,35.60
2023-02-23T22:24:28.819Z,36.85
2023-02-23T22:27:16.616Z,33.22
2023-02-23T22:30:05.331Z,34.90
2023-02-23T22:32:51.445Z,35.80
2023-02-23T22:35:41.059Z,35.40
2023-02-23T22:38:26.844Z,36.78
2023-02-23T22:41:13.863Z,36.97
2023-02-23T22:43:59.842Z,36.33
2023-02-23T22:46:48.452Z,37.38
2023-02-23T22:49:35.712Z,35.28
2023-02-23T22:52:21.566Z,38.20
2023-02-23T22:55:08.112Z,37.08
2023-02-23T22:57:55.685Z,35.05
2023-02-23T23:01:02.377Z,38.38
2023-02-23T23:03:48.343Z,35.92
2023-02-23T23:06:34.501Z,38.63
2023-02-23T23:09:21.442Z,36.90
2023-02-23T23:12:07.330Z,42.60
2023-02-23T23:14:53.006Z,37.97
2023-02-23T23:17:38.978Z,40.80
2023-02-23T23:20:25.986Z,35.97
2023-02-23T23:23:13.247Z,39.35
2023-02-23T23:26:00.080Z,37.33
2023-02-23T23:28:48.426Z,35.83
2023-02-23T23:31:35.718Z,34.78
2023-02-23T23:34:22.619Z,33.97
2023-02-23T23:37:09.149Z,36.47
2023-02-23T23:40:00.314Z,38.00
2023-02-23T23:42:46.834Z,35.90
2023-02-23T23:45:38.279Z,37.35
2023-02-23T23:48:25.493Z,38.28
2023-02-23T23:51:11.602Z,38.72
2023-02-23T23:54:01.800Z,37.53
2023-02-23T23:56:48.263Z,39.75
2023-02-23T23:59:35.920Z,37.88
